This is the latest recevied weather packets stored in our database for station/object KB9ZGZ. If no packets are shown the sender has not sent any weather packets the latest 10 day(s).
| Time | Temp. | Humidity | Pressure | Rain* | Wind** | Luminosity | Snow |
|---|---|---|---|---|---|---|---|
| 1778115636 | 12.22° C | 60% | 1011.5 hPa | 0 mm | - | - | - |
| 1778114730 | 12.78° C | 55% | 1011.5 hPa | 0 mm | - | - | - |
| 1778113833 | 13.89° C | 51% | 1011.4 hPa | 0 mm | - | - | - |
| 1778112927 | 15° C | 48% | 1011.4 hPa | 0 mm | - | - | - |
| 1778112028 | 15.56° C | 50% | 1011.4 hPa | 0 mm | - | - | - |
| 1778111127 | 16.11° C | 47% | 1011.4 hPa | 0 mm | - | - | - |
| 1778110223 | 15.56° C | 48% | 1011.5 hPa | 0 mm | - | - | - |
| 1778109323 | 15.56° C | 49% | 1011.5 hPa | 0 mm | - | - | - |
| 1778108423 | 15° C | 51% | 1011.5 hPa | 0 mm | - | - | - |
| 1778107522 | 16.11° C | 46% | 1011.5 hPa | 0 mm | - | - | - |
| 1778106618 | 15° C | 50% | 1011.4 hPa | 0 mm | - | - | - |
| 1778105718 | 16.11° C | 45% | 1011.2 hPa | 0 mm | - | - | - |
| 1778104817 | 15° C | 53% | 1011.4 hPa | 0 mm | - | - | - |
| 1778103927 | 15° C | 49% | 1011.1 hPa | 0 mm | - | - | - |
| 1778103012 | 16.67° C | 48% | 1011 hPa | 0 mm | - | - | - |
| 1778102110 | 16.67° C | 45% | 1011.1 hPa | 0 mm | - | - | - |
| 1778101207 | 17.22° C | 50% | 1011.4 hPa | 0 mm | - | - | - |
| 1778100306 | 16.11° C | 47% | 1011.4 hPa | 0 mm | - | - | - |
| 1778099405 | 15.56° C | 48% | 1011.5 hPa | 0 mm | - | - | - |
| 1778098504 | 16.67° C | 49% | 1011.6 hPa | 0 mm | - | - | - |
| 1778097659 | 16.11° C | 49% | 1011.5 hPa | 0 mm | - | - | - |
| 1778096762 | 16.11° C | 49% | 1011.6 hPa | 0 mm | - | - | - |
| 1778095856 | 16.11° C | 47% | 1011.5 hPa | 0 mm | - | - | - |
| 1778094956 | 15.56° C | 51% | 1011.5 hPa | 0 mm | - | - | - |
| 1778094052 | 16.11° C | 53% | 1011.6 hPa | 0 mm | - | - | - |
* Rain since midnight (hover to see other rain measurements)
** Current wind speed in m/s (hover to see current wind gust speed)